Time;durP1;ratioP1;P1;durP2;ratioP2;P2;SDS_P1;SDS_P2;PMS_P1;PMS_P2;Temp;Humidity;BMP_temperature;BMP_pressure;BME280_temperature;BME280_humidity;BME280_pressure;Samples;Min_cycle;Max_cycle;Signal;HPM_P1;HPM_P2
2023/02/14 00:04:47;;;;;;;14.67;6.37;;;;;;;3.56;100.00;100442.03;31237833;28;20050;-74
2023/02/14 00:19:49;;;;;;;14.27;6.77;;;;;;;3.50;100.00;100403.25;31234177;28;20474;-74
2023/02/14 00:34:51;;;;;;;16.67;6.53;;;;;;;3.47;100.00;100385.16;31218246;28;20045;-74
2023/02/14 00:49:53;;;;;;;17.67;6.03;;;;;;;3.51;100.00;100345.75;31230253;28;20054;-73
2023/02/14 01:04:54;;;;;;;13.60;7.20;;;;;;;3.49;100.00;100334.59;31241064;28;20459;-72
2023/02/14 01:19:57;;;;;;;11.73;6.63;;;;;;;3.54;100.00;100304.75;31227980;28;20053;-73
2023/02/14 01:34:59;;;;;;;12.97;6.67;;;;;;;3.36;100.00;100282.28;31226588;28;20057;-74
2023/02/14 01:50:13;;;;;;;18.63;8.30;;;;;;;3.51;100.00;100251.78;31226663;28;20049;-74
2023/02/14 02:05:16;;;;;;;21.77;9.33;;;;;;;3.47;100.00;100213.41;31221890;28;20100;-74
2023/02/14 02:20:53;;;;;;;22.10;9.47;;;;;;;3.56;100.00;100200.44;31232347;28;20107;-74
2023/02/14 02:35:54;;;;;;;18.73;9.63;;;;;;;3.49;100.00;100183.50;31222914;28;20057;-74
2023/02/14 03:06:19;;;;;;;21.37;8.90;;;;;;;3.53;100.00;100142.16;31223741;28;20432;-73
2023/02/14 03:21:34;;;;;;;21.20;8.87;;;;;;;3.52;100.00;100103.03;31213264;28;20523;-73
2023/02/14 03:37:01;;;;;;;20.07;8.67;;;;;;;3.60;100.00;100069.72;31235166;28;20042;-75
2023/02/14 03:52:06;;;;;;;26.03;9.77;;;;;;;3.53;100.00;100039.38;31238682;28;20049;-73
2023/02/14 04:07:19;;;;;;;19.83;8.37;;;;;;;3.56;100.00;100007.19;31231215;28;20038;-74
2023/02/14 04:22:21;;;;;;;22.93;9.90;;;;;;;3.64;100.00;99989.22;31230546;28;20072;-74
2023/02/14 04:37:23;;;;;;;17.57;8.47;;;;;;;3.75;100.00;99976.66;31232313;28;20053;-75
2023/02/14 04:52:26;;;;;;;19.70;7.10;;;;;;;3.70;100.00;99968.94;31230961;28;20049;-74
2023/02/14 05:07:27;;;;;;;16.27;7.43;;;;;;;3.64;100.00;99944.34;31223439;28;20107;-74
2023/02/14 05:22:29;;;;;;;17.30;7.27;;;;;;;3.67;100.00;99937.47;31228643;28;20107;-74
2023/02/14 05:37:31;;;;;;;14.47;7.30;;;;;;;3.78;100.00;99933.69;31213773;28;20049;-74
2023/02/14 05:52:33;;;;;;;14.13;6.77;;;;;;;3.76;100.00;99913.75;31222124;28;20057;-83
2023/02/14 06:07:35;;;;;;;16.40;7.17;;;;;;;3.73;100.00;99898.38;31223190;28;20095;-84
2023/02/14 06:22:38;;;;;;;13.07;5.63;;;;;;;3.81;100.00;99885.75;31232449;28;20076;-84
2023/02/14 06:37:41;;;;;;;15.57;5.73;;;;;;;3.68;100.00;99869.97;31230398;28;20494;-83
2023/02/14 06:52:43;;;;;;;13.40;5.97;;;;;;;3.71;100.00;99869.22;31255106;28;20412;-83
2023/02/14 07:07:45;;;;;;;10.03;5.10;;;;;;;3.63;100.00;99851.53;31255887;28;20107;-78
2023/02/14 07:22:47;;;;;;;9.23;4.67;;;;;;;3.48;100.00;99849.94;31214734;28;20767;-84
2023/02/14 07:37:50;;;;;;;7.70;3.87;;;;;;;3.36;100.00;99852.94;31240805;28;20834;-82
2023/02/14 07:52:52;;;;;;;12.60;4.97;;;;;;;3.26;100.00;99837.56;31235331;28;20058;-76
2023/02/14 08:07:53;;;;;;;9.10;4.60;;;;;;;3.68;100.00;99821.66;31219682;28;20053;-74
2023/02/14 08:22:56;;;;;;;10.97;4.47;;;;;;;4.07;100.00;99853.22;31251969;28;20057;-74
2023/02/14 08:37:58;;;;;;;11.07;3.97;;;;;;;3.85;100.00;99859.69;31235976;28;20053;-70
2023/02/14 08:53:00;;;;;;;7.17;3.80;;;;;;;3.74;100.00;99852.38;31256646;28;20049;-71
2023/02/14 09:08:03;;;;;;;4.23;2.53;;;;;;;3.68;100.00;99853.88;31231583;28;20452;-71
2023/02/14 09:23:05;;;;;;;5.37;3.00;;;;;;;3.59;100.00;99869.53;31213646;28;20965;-75
2023/02/14 09:38:19;;;;;;;8.43;3.63;;;;;;;3.68;100.00;99863.84;31218118;28;20054;-70
2023/02/14 09:53:26;;;;;;;9.27;4.63;;;;;;;3.92;100.00;99857.03;31200861;28;20143;-76
2023/02/14 10:09:06;;;;;;;10.83;5.13;;;;;;;4.10;100.00;99868.59;31218803;28;20495;-80
2023/02/14 10:24:21;;;;;;;13.37;6.90;;;;;;;4.26;100.00;99874.38;31234919;28;20057;-77
2023/02/14 10:40:00;;;;;;;14.93;6.83;;;;;;;4.52;100.00;99880.56;31210647;28;20104;-81
2023/02/14 10:55:31;;;;;;;15.37;5.33;;;;;;;4.65;100.00;99876.38;31209334;28;20056;-79
2023/02/14 11:10:34;;;;;;;9.23;4.63;;;;;;;5.71;100.00;99876.19;31206853;28;20099;-73
2023/02/14 11:25:37;;;;;;;38.17;15.33;;;;;;;6.18;100.00;99882.16;31214318;28;20532;-75
2023/02/14 11:40:39;;;;;;;12.33;5.03;;;;;;;6.76;100.00;99877.97;31222467;28;20057;-75
2023/02/14 11:55:41;;;;;;;6.17;3.33;;;;;;;6.27;100.00;99909.47;31241962;28;20112;-72
2023/02/14 12:10:43;;;;;;;10.30;5.10;;;;;;;7.68;100.00;99893.28;31229993;28;20103;-73
2023/02/14 12:26:21;;;;;;;6.93;3.77;;;;;;;6.53;100.00;99902.78;31227835;28;20057;-73
2023/02/14 12:41:28;;;;;;;;;;;;;;;6.19;100.00;99893.72;31220626;28;20061;-73
2023/02/14 12:56:53;;;;;;;;;;;;;;;5.39;100.00;99913.22;31225888;28;20365;-80
2023/02/14 13:12:19;;;;;;;4.20;2.67;;;;;;;4.99;100.00;99917.84;31239495;28;20699;-72
2023/02/14 13:27:30;;;;;;;5.73;2.60;;;;;;;4.88;100.00;99922.47;31225471;28;20122;-81
2023/02/14 13:42:47;;;;;;;5.73;2.83;;;;;;;4.64;100.00;99934.75;31244870;28;20119;-83
2023/02/14 13:58:01;;;;;;;7.30;3.37;;;;;;;4.51;100.00;99943.53;31237399;28;20098;-75
2023/02/14 14:13:06;;;;;;;5.13;2.73;;;;;;;4.50;100.00;99950.06;31214311;28;20042;-78
2023/02/14 14:28:20;;;;;;;6.30;2.90;;;;;;;4.40;100.00;99951.59;31228481;28;20471;-77
2023/02/14 14:43:30;;;;;;;7.60;2.63;;;;;;;4.29;100.00;99953.47;31216076;28;20065;-76
2023/02/14 14:58:36;;;;;;;5.40;3.37;;;;;;;4.14;100.00;99949.97;31230568;28;20060;-78
2023/02/14 15:13:49;;;;;;;;;;;;;;;4.13;100.00;99967.22;31215952;28;20071;-78
2023/02/14 15:28:59;;;;;;;4.47;2.73;;;;;;;3.92;100.00;99977.88;31240927;28;20464;-80
2023/02/14 15:44:02;;;;;;;8.47;3.47;;;;;;;3.74;100.00;99986.63;31246580;28;20056;-73
2023/02/14 15:59:11;;;;;;;5.47;2.93;;;;;;;3.78;100.00;100001.97;31222118;28;20046;-77
2023/02/14 16:14:43;;;;;;;6.60;3.27;;;;;;;3.58;100.00;100010.25;31234087;28;20049;-79
2023/02/14 16:29:46;;;;;;;8.60;3.70;;;;;;;3.41;100.00;100014.38;31215329;28;20046;-72
2023/02/14 16:44:48;;;;;;;7.53;2.90;;;;;;;3.38;100.00;100022.38;31218937;28;20081;-71
2023/02/14 16:59:49;;;;;;;7.67;4.33;;;;;;;3.31;100.00;100039.19;31215734;28;20037;-72
2023/02/14 17:14:56;;;;;;;5.13;2.90;;;;;;;3.31;100.00;100055.28;31258218;28;20191;-71
2023/02/14 17:29:58;;;;;;;5.23;2.53;;;;;;;3.43;100.00;100055.03;31230194;28;20052;-73
2023/02/14 17:45:01;;;;;;;5.60;3.33;;;;;;;3.23;100.00;100067.13;31221226;28;20085;-72
2023/02/14 18:00:04;;;;;;;7.23;3.17;;;;;;;3.23;100.00;100069.78;31211166;28;20057;-73
2023/02/14 18:15:06;;;;;;;4.70;3.80;;;;;;;3.20;100.00;100061.72;31231286;28;20515;-73
2023/02/14 18:30:09;;;;;;;8.67;5.27;;;;;;;3.29;100.00;100062.19;31207300;28;20042;-72
2023/02/14 18:45:11;;;;;;;13.63;6.57;;;;;;;3.16;100.00;100091.19;31214971;28;20050;-74
2023/02/14 19:00:14;;;;;;;18.47;9.03;;;;;;;3.29;100.00;100099.75;31216967;28;20516;-74
2023/02/14 19:15:17;;;;;;;13.60;5.90;;;;;;;3.25;100.00;100117.72;31196189;28;20473;-73
2023/02/14 19:30:20;;;;;;;13.13;5.70;;;;;;;3.16;100.00;100117.22;31223062;28;20038;-73
2023/02/14 19:45:22;;;;;;;15.83;6.80;;;;;;;3.19;100.00;100132.59;31200464;28;20069;-76
2023/02/14 20:00:23;;;;;;;19.63;7.80;;;;;;;3.22;100.00;100129.94;31208082;28;20049;-75
2023/02/14 20:15:27;;;;;;;20.33;8.13;;;;;;;3.25;100.00;100131.13;31231053;28;20103;-76
2023/02/14 20:30:29;;;;;;;10.17;5.00;;;;;;;3.26;100.00;100154.13;31250306;28;20428;-75
2023/02/14 20:45:31;;;;;;;9.23;4.50;;;;;;;3.19;100.00;100167.47;31201294;28;20050;-75
2023/02/14 21:00:33;;;;;;;9.93;3.80;;;;;;;3.28;100.00;100176.00;31234781;28;20721;-77
2023/02/14 21:15:35;;;;;;;5.97;3.70;;;;;;;3.15;100.00;100191.56;31235590;28;20134;-75
2023/02/14 21:30:38;;;;;;;7.50;3.17;;;;;;;3.20;100.00;100203.88;31224347;28;20064;-75
2023/02/14 21:45:52;;;;;;;10.93;4.27;;;;;;;3.26;100.00;100211.25;31202762;28;20563;-73
2023/02/14 22:00:55;;;;;;;5.77;3.00;;;;;;;2.96;100.00;100232.72;31198147;28;20057;-75
2023/02/14 22:16:05;;;;;;;8.77;5.63;;;;;;;3.26;100.00;100229.25;31205217;28;20053;-75
2023/02/14 22:31:08;;;;;;;3.10;2.20;;;;;;;3.15;100.00;100253.25;31198146;28;20091;-74
2023/02/14 22:46:14;;;;;;;11.27;5.90;;;;;;;3.09;100.00;100263.53;31207062;28;20107;-76
2023/02/14 23:01:18;;;;;;;4.20;2.57;;;;;;;3.21;100.00;100272.50;31230888;28;20072;-73
2023/02/14 23:31:43;;;;;;;2.33;1.53;;;;;;;2.90;100.00;100317.28;31187799;28;20061;-73
2023/02/14 23:46:47;;;;;;;1.47;1.30;;;;;;;2.94;100.00;100336.91;31209386;28;20509;-74
